createdAt,value
2023-05-19T00:02:02.018Z,100.00
2023-05-19T00:04:29.376Z,100.00
2023-05-19T00:06:59.270Z,100.00
2023-05-19T00:09:26.790Z,100.00
2023-05-19T00:11:54.043Z,100.00
2023-05-19T00:14:22.523Z,100.00
2023-05-19T00:16:51.618Z,100.00
2023-05-19T00:19:18.928Z,100.00
2023-05-19T00:21:45.710Z,100.00
2023-05-19T00:24:12.497Z,100.00
2023-05-19T00:26:39.470Z,100.00
2023-05-19T00:29:06.803Z,100.00
2023-05-19T00:31:33.725Z,100.00
2023-05-19T00:34:02.802Z,100.00
2023-05-19T00:36:30.603Z,100.00
2023-05-19T00:38:57.387Z,100.00
2023-05-19T00:41:24.662Z,100.00
2023-05-19T00:43:51.453Z,100.00
2023-05-19T00:46:19.293Z,100.00
2023-05-19T00:48:46.391Z,100.00
2023-05-19T00:51:15.656Z,100.00
2023-05-19T00:53:43.627Z,100.00
2023-05-19T00:56:10.582Z,100.00
2023-05-19T00:58:38.326Z,100.00
2023-05-19T01:01:05.544Z,100.00
2023-05-19T01:03:34.238Z,100.00
2023-05-19T01:06:01.296Z,100.00
2023-05-19T01:08:29.673Z,100.00
2023-05-19T01:10:56.483Z,100.00
2023-05-19T01:13:23.949Z,100.00
2023-05-19T01:16:00.025Z,100.00
2023-05-19T01:18:36.747Z,100.00
2023-05-19T01:21:26.359Z,100.00
2023-05-19T01:24:12.827Z,100.00
2023-05-19T01:27:12.359Z,100.00
2023-05-19T01:29:49.637Z,100.00
2023-05-19T01:32:21.088Z,100.00
2023-05-19T01:34:49.928Z,100.00
2023-05-19T01:37:18.722Z,100.00
2023-05-19T01:39:46.308Z,100.00
2023-05-19T01:42:14.434Z,100.00
2023-05-19T01:44:41.836Z,100.00
2023-05-19T01:47:10.294Z,100.00
2023-05-19T01:49:38.730Z,100.00
2023-05-19T01:52:06.035Z,100.00
2023-05-19T01:54:33.646Z,100.00
2023-05-19T01:57:09.906Z,100.00
2023-05-19T01:59:46.463Z,100.00
2023-05-19T02:02:26.468Z,100.00
2023-05-19T02:05:02.794Z,100.00
2023-05-19T02:07:37.523Z,100.00
2023-05-19T02:10:14.653Z,100.00
2023-05-19T02:12:41.946Z,100.00
2023-05-19T02:15:11.984Z,100.00
2023-05-19T02:17:42.205Z,100.00
2023-05-19T02:20:12.420Z,100.00
2023-05-19T02:22:39.554Z,100.00
2023-05-19T02:25:07.900Z,100.00
2023-05-19T02:27:37.109Z,100.00
2023-05-19T02:30:04.569Z,100.00
2023-05-19T02:32:31.657Z,100.00
2023-05-19T02:34:59.570Z,100.00
2023-05-19T02:37:27.737Z,100.00
2023-05-19T02:39:55.435Z,100.00
2023-05-19T02:42:22.198Z,100.00
2023-05-19T02:44:49.225Z,100.00
2023-05-19T02:47:16.166Z,100.00
2023-05-19T02:49:43.367Z,100.00
2023-05-19T02:52:11.344Z,100.00
2023-05-19T02:54:40.496Z,100.00
2023-05-19T02:57:07.294Z,100.00
2023-05-19T02:59:34.321Z,100.00
2023-05-19T03:02:02.193Z,100.00
2023-05-19T03:04:29.286Z,100.00
2023-05-19T03:06:56.124Z,100.00
2023-05-19T03:09:23.208Z,100.00
2023-05-19T03:11:51.369Z,100.00
2023-05-19T03:14:18.153Z,100.00
2023-05-19T03:16:45.209Z,100.00
2023-05-19T03:19:12.268Z,100.00
2023-05-19T03:21:39.040Z,100.00
2023-05-19T03:24:06.654Z,100.00
2023-05-19T03:26:34.086Z,100.00
2023-05-19T03:29:02.588Z,100.00
2023-05-19T03:31:31.573Z,100.00
2023-05-19T03:33:59.872Z,100.00
2023-05-19T03:36:26.864Z,100.00
2023-05-19T03:38:53.902Z,100.00
2023-05-19T03:41:21.124Z,100.00
2023-05-19T03:43:47.941Z,100.00
2023-05-19T03:46:17.009Z,100.00
2023-05-19T03:49:15.445Z,100.00
2023-05-19T03:52:01.386Z,100.00
2023-05-19T03:54:46.608Z,100.00
2023-05-19T03:57:14.439Z,100.00
2023-05-19T03:59:41.516Z,100.00
2023-05-19T04:02:10.181Z,100.00
2023-05-19T04:04:37.143Z,100.00
2023-05-19T04:07:04.779Z,100.00
2023-05-19T04:09:31.511Z,100.00
2023-05-19T04:11:58.562Z,100.00
2023-05-19T04:14:25.507Z,100.00
2023-05-19T04:16:52.557Z,100.00
2023-05-19T04:19:24.037Z,100.00
2023-05-19T04:21:51.296Z,100.00
2023-05-19T04:24:18.064Z,100.00
2023-05-19T04:26:45.244Z,100.00
2023-05-19T04:29:12.723Z,100.00
2023-05-19T04:31:40.296Z,100.00
2023-05-19T04:34:07.268Z,100.00
2023-05-19T04:36:36.170Z,100.00
2023-05-19T04:39:05.241Z,100.00
2023-05-19T04:41:32.148Z,100.00
2023-05-19T04:43:58.993Z,100.00
2023-05-19T04:46:26.319Z,100.00
2023-05-19T04:48:55.297Z,100.00
2023-05-19T04:51:22.097Z,100.00
2023-05-19T04:53:50.611Z,100.00
2023-05-19T04:56:17.395Z,100.00
2023-05-19T04:58:45.200Z,100.00
2023-05-19T05:01:12.418Z,100.00
2023-05-19T05:03:39.429Z,100.00
2023-05-19T05:06:06.446Z,100.00
2023-05-19T05:08:34.198Z,100.00
2023-05-19T05:11:03.336Z,100.00
2023-05-19T05:13:31.280Z,100.00
2023-05-19T05:15:58.854Z,100.00
2023-05-19T05:18:26.647Z,100.00
2023-05-19T05:20:54.156Z,100.00
2023-05-19T05:23:21.591Z,100.00
2023-05-19T05:25:50.090Z,100.00
2023-05-19T05:28:18.552Z,100.00
2023-05-19T05:30:47.040Z,100.00
2023-05-19T05:33:15.197Z,100.00
2023-05-19T05:35:42.110Z,100.00
2023-05-19T05:38:11.137Z,100.00
2023-05-19T05:40:38.376Z,100.00
2023-05-19T05:43:06.144Z,100.00
2023-05-19T05:45:38.850Z,100.00
2023-05-19T05:48:07.306Z,100.00
2023-05-19T05:50:35.081Z,100.00
2023-05-19T05:53:05.940Z,100.00
2023-05-19T05:55:34.313Z,100.00
2023-05-19T05:58:01.799Z,100.00
2023-05-19T06:00:28.573Z,100.00
2023-05-19T06:02:56.803Z,100.00
2023-05-19T06:05:25.856Z,100.00
2023-05-19T06:07:53.930Z,100.00
2023-05-19T06:10:25.062Z,100.00
2023-05-19T06:12:52.998Z,100.00
2023-05-19T06:15:21.798Z,100.00
2023-05-19T06:18:16.329Z,100.00
2023-05-19T06:20:43.201Z,100.00
2023-05-19T06:23:10.123Z,100.00
2023-05-19T06:25:37.020Z,100.00
2023-05-19T06:28:05.343Z,100.00
2023-05-19T06:30:32.564Z,100.00
2023-05-19T06:33:13.907Z,100.00
2023-05-19T06:35:42.411Z,100.00
2023-05-19T06:38:09.188Z,100.00
2023-05-19T06:40:36.856Z,100.00
2023-05-19T06:43:03.893Z,100.00
2023-05-19T06:45:53.286Z,100.00
2023-05-19T06:48:21.218Z,100.00
2023-05-19T06:50:50.121Z,100.00
2023-05-19T06:53:17.311Z,100.00
2023-05-19T06:55:57.878Z,100.00
2023-05-19T06:58:30.227Z,100.00
2023-05-19T07:00:58.549Z,100.00
2023-05-19T07:03:29.535Z,100.00
2023-05-19T07:05:59.475Z,100.00
2023-05-19T07:08:26.516Z,100.00
2023-05-19T07:10:53.463Z,100.00
2023-05-19T07:13:20.217Z,100.00
2023-05-19T07:15:46.989Z,100.00
2023-05-19T07:18:13.977Z,100.00
2023-05-19T07:20:41.108Z,100.00
2023-05-19T07:23:09.552Z,100.00
2023-05-19T07:25:37.015Z,100.00
2023-05-19T07:28:04.824Z,100.00
2023-05-19T07:30:32.316Z,100.00
2023-05-19T07:32:59.245Z,100.00
2023-05-19T07:35:26.532Z,100.00
2023-05-19T07:37:53.428Z,100.00
2023-05-19T07:40:21.554Z,100.00
2023-05-19T07:42:49.455Z,100.00
2023-05-19T07:45:16.209Z,100.00
2023-05-19T07:47:42.935Z,100.00
2023-05-19T07:50:09.754Z,100.00
2023-05-19T07:52:36.491Z,100.00
2023-05-19T07:55:03.613Z,100.00
2023-05-19T07:57:31.864Z,100.00
2023-05-19T07:59:58.571Z,100.00
2023-05-19T08:02:25.986Z,100.00
2023-05-19T08:04:53.188Z,100.00
2023-05-19T08:07:21.307Z,100.00
2023-05-19T08:09:48.719Z,100.00
2023-05-19T08:12:16.982Z,100.00
2023-05-19T08:14:45.244Z,100.00
2023-05-19T08:17:12.321Z,100.00
2023-05-19T08:19:38.986Z,100.00
2023-05-19T08:22:05.767Z,100.00
2023-05-19T08:24:32.513Z,100.00
2023-05-19T08:27:01.812Z,100.00
2023-05-19T08:29:28.526Z,100.00
2023-05-19T08:31:56.700Z,100.00
2023-05-19T08:34:23.712Z,100.00
2023-05-19T08:36:50.596Z,100.00
2023-05-19T08:39:17.736Z,100.00
2023-05-19T08:41:44.749Z,100.00
2023-05-19T08:44:11.521Z,100.00
2023-05-19T08:46:38.515Z,100.00
2023-05-19T08:49:12.401Z,100.00
2023-05-19T08:51:47.285Z,100.00
2023-05-19T08:54:15.317Z,100.00
2023-05-19T08:56:44.386Z,100.00
2023-05-19T08:59:13.280Z,100.00
2023-05-19T09:01:42.628Z,100.00
2023-05-19T09:04:14.303Z,100.00
2023-05-19T09:06:41.412Z,100.00
2023-05-19T09:09:08.389Z,100.00
2023-05-19T09:11:35.383Z,100.00
2023-05-19T09:14:02.122Z,100.00
2023-05-19T09:16:30.190Z,100.00
2023-05-19T09:18:58.050Z,100.00
2023-05-19T09:21:30.476Z,100.00
2023-05-19T09:23:57.805Z,100.00
2023-05-19T09:26:25.107Z,100.00
2023-05-19T09:28:51.941Z,100.00
2023-05-19T09:31:19.169Z,100.00
2023-05-19T09:33:47.983Z,100.00
2023-05-19T09:36:14.949Z,100.00
2023-05-19T09:38:43.265Z,100.00
2023-05-19T09:41:10.607Z,100.00
2023-05-19T09:43:37.442Z,100.00
2023-05-19T09:46:05.187Z,100.00
2023-05-19T09:48:32.611Z,100.00
2023-05-19T09:51:00.918Z,100.00
2023-05-19T09:53:30.053Z,100.00
2023-05-19T09:55:58.129Z,97.43
2023-05-19T09:58:25.335Z,95.52
2023-05-19T10:00:52.693Z,96.12
2023-05-19T10:03:20.294Z,100.00
2023-05-19T10:05:48.662Z,96.37
2023-05-19T10:08:17.297Z,100.00
2023-05-19T10:10:46.487Z,100.00
2023-05-19T10:13:15.978Z,100.00
2023-05-19T10:15:57.188Z,90.67
2023-05-19T10:18:26.637Z,94.96
2023-05-19T10:20:54.255Z,88.39
2023-05-19T10:23:21.153Z,88.78
2023-05-19T10:25:50.462Z,72.23
2023-05-19T10:28:19.944Z,82.32
2023-05-19T10:30:50.637Z,86.85
2023-05-19T10:33:22.065Z,79.47
2023-05-19T10:36:04.046Z,89.64
2023-05-19T10:38:36.645Z,73.98
2023-05-19T10:41:10.693Z,70.89
2023-05-19T10:43:54.482Z,77.13
2023-05-19T10:46:24.425Z,69.81
2023-05-19T10:48:51.700Z,77.84
2023-05-19T10:51:18.893Z,80.90
2023-05-19T10:53:45.992Z,87.30
2023-05-19T10:56:28.548Z,75.88
2023-05-19T10:58:56.752Z,73.74
2023-05-19T11:01:31.594Z,77.39
2023-05-19T11:03:58.201Z,80.61
2023-05-19T11:06:25.897Z,86.60
2023-05-19T11:08:54.520Z,72.08
2023-05-19T11:11:23.278Z,59.46
2023-05-19T11:13:54.023Z,72.23
2023-05-19T11:16:28.335Z,70.59
2023-05-19T11:18:55.727Z,73.58
2023-05-19T11:21:22.689Z,69.21
2023-05-19T11:23:51.478Z,72.05
2023-05-19T11:26:40.021Z,77.80
2023-05-19T11:29:06.937Z,77.31
2023-05-19T11:31:36.917Z,68.26
2023-05-19T11:34:04.523Z,67.49
2023-05-19T11:36:31.879Z,80.87
2023-05-19T11:38:59.848Z,68.76
2023-05-19T11:41:26.710Z,72.75
2023-05-19T11:43:53.437Z,69.13
2023-05-19T11:46:20.216Z,73.36
2023-05-19T11:48:48.935Z,77.71
2023-05-19T11:51:15.925Z,78.28
2023-05-19T11:53:42.679Z,69.71
2023-05-19T11:56:11.921Z,70.68
2023-05-19T11:58:38.619Z,69.26
2023-05-19T12:01:05.660Z,85.32
2023-05-19T12:03:32.848Z,76.06
2023-05-19T12:06:03.925Z,68.86
2023-05-19T12:08:30.721Z,69.58
2023-05-19T12:10:58.131Z,71.47
2023-05-19T12:13:25.480Z,75.61
2023-05-19T12:15:52.353Z,75.76
2023-05-19T12:18:19.611Z,87.97
2023-05-19T12:20:47.065Z,97.54
2023-05-19T12:23:15.567Z,92.73
2023-05-19T12:25:42.366Z,93.81
2023-05-19T12:28:09.737Z,85.19
2023-05-19T12:30:36.854Z,74.26
2023-05-19T12:33:04.361Z,91.70
2023-05-19T12:35:32.534Z,75.25
2023-05-19T12:38:02.934Z,100.00
2023-05-19T12:40:31.464Z,100.00
2023-05-19T12:42:58.448Z,100.00
2023-05-19T12:45:25.332Z,95.36
2023-05-19T12:47:52.326Z,100.00
2023-05-19T12:50:19.260Z,100.00
2023-05-19T12:52:48.268Z,84.54
2023-05-19T12:55:15.348Z,99.51
2023-05-19T12:57:44.927Z,100.00
2023-05-19T13:00:15.084Z,100.00
2023-05-19T13:02:56.222Z,100.00
2023-05-19T13:05:23.567Z,100.00
2023-05-19T13:07:57.039Z,100.00
2023-05-19T13:10:24.180Z,100.00
2023-05-19T13:12:53.637Z,100.00
2023-05-19T13:15:20.435Z,100.00
2023-05-19T13:17:47.199Z,100.00
2023-05-19T13:20:14.085Z,100.00
2023-05-19T13:22:40.876Z,100.00
2023-05-19T13:25:08.813Z,100.00
2023-05-19T13:27:35.604Z,100.00
2023-05-19T13:30:05.373Z,100.00
2023-05-19T13:32:32.396Z,100.00
2023-05-19T13:35:00.496Z,100.00
2023-05-19T13:37:27.413Z,100.00
2023-05-19T13:39:54.520Z,100.00
2023-05-19T13:42:21.470Z,100.00
2023-05-19T13:44:48.693Z,100.00
2023-05-19T13:47:16.845Z,100.00
2023-05-19T13:49:43.777Z,100.00
2023-05-19T13:52:10.521Z,100.00
2023-05-19T13:54:37.519Z,100.00
2023-05-19T13:57:04.965Z,100.00
2023-05-19T13:59:33.360Z,100.00
2023-05-19T14:02:01.773Z,100.00
2023-05-19T14:04:30.296Z,100.00
2023-05-19T14:06:57.075Z,100.00
2023-05-19T14:09:24.311Z,100.00
2023-05-19T14:11:51.423Z,100.00
2023-05-19T14:14:18.125Z,100.00
2023-05-19T14:16:45.317Z,100.00
2023-05-19T14:19:12.379Z,100.00
2023-05-19T14:21:40.758Z,100.00
2023-05-19T14:24:07.504Z,100.00
2023-05-19T14:26:34.424Z,100.00
2023-05-19T14:29:02.597Z,100.00
2023-05-19T14:31:30.164Z,100.00
2023-05-19T14:33:56.922Z,100.00
2023-05-19T14:36:23.613Z,100.00
2023-05-19T14:38:51.869Z,100.00
2023-05-19T14:41:18.661Z,100.00
2023-05-19T14:43:46.951Z,100.00
2023-05-19T14:46:14.286Z,100.00
2023-05-19T14:48:41.084Z,100.00
2023-05-19T14:51:08.079Z,100.00
2023-05-19T14:53:34.942Z,100.00
2023-05-19T14:56:05.093Z,100.00
2023-05-19T14:58:33.504Z,100.00
2023-05-19T15:01:00.478Z,100.00
2023-05-19T15:03:27.572Z,100.00
2023-05-19T15:05:54.381Z,100.00
2023-05-19T15:08:21.343Z,97.25
2023-05-19T15:10:49.217Z,100.00
2023-05-19T15:13:19.188Z,100.00
2023-05-19T15:15:46.234Z,100.00
2023-05-19T15:18:13.112Z,100.00
2023-05-19T15:20:40.485Z,100.00
2023-05-19T15:23:07.388Z,100.00
2023-05-19T15:25:34.171Z,100.00
2023-05-19T15:28:00.982Z,100.00
2023-05-19T15:30:29.436Z,100.00
2023-05-19T15:32:56.465Z,100.00
2023-05-19T15:35:24.581Z,100.00
2023-05-19T15:37:51.931Z,100.00
2023-05-19T15:40:18.781Z,100.00
2023-05-19T15:42:45.667Z,100.00
2023-05-19T15:45:12.540Z,100.00
2023-05-19T15:47:40.659Z,100.00
2023-05-19T15:50:08.753Z,100.00
2023-05-19T15:52:35.494Z,100.00
2023-05-19T15:55:02.310Z,100.00
2023-05-19T15:57:29.020Z,100.00
2023-05-19T15:59:55.855Z,100.00
2023-05-19T16:02:22.810Z,100.00
2023-05-19T16:04:51.157Z,100.00
2023-05-19T16:07:18.210Z,100.00
2023-05-19T16:09:45.399Z,100.00
2023-05-19T16:12:13.435Z,100.00
2023-05-19T16:14:40.452Z,100.00
2023-05-19T16:17:07.307Z,100.00
2023-05-19T16:19:34.173Z,100.00
2023-05-19T16:22:02.335Z,100.00
2023-05-19T16:24:29.361Z,100.00
2023-05-19T16:26:56.116Z,100.00
2023-05-19T16:29:22.882Z,100.00
2023-05-19T16:31:49.745Z,100.00
2023-05-19T16:34:16.520Z,100.00
2023-05-19T16:36:43.231Z,100.00
2023-05-19T16:39:11.301Z,100.00
2023-05-19T16:41:38.348Z,100.00
2023-05-19T16:44:05.700Z,100.00
2023-05-19T16:46:32.529Z,100.00
2023-05-19T16:48:59.368Z,100.00
2023-05-19T16:51:26.358Z,100.00
2023-05-19T16:53:53.077Z,100.00
2023-05-19T16:56:21.369Z,100.00
2023-05-19T16:58:50.185Z,100.00
2023-05-19T17:01:17.149Z,100.00
2023-05-19T17:03:44.136Z,100.00
2023-05-19T17:06:11.032Z,100.00
2023-05-19T17:08:37.845Z,100.00
2023-05-19T17:11:05.884Z,100.00
2023-05-19T17:13:34.706Z,100.00
2023-05-19T17:16:01.774Z,100.00
2023-05-19T17:18:28.776Z,100.00
2023-05-19T17:20:55.485Z,100.00
2023-05-19T17:23:22.286Z,100.00
2023-05-19T17:25:53.536Z,100.00
2023-05-19T17:28:20.526Z,100.00
2023-05-19T17:30:48.820Z,100.00
2023-05-19T17:33:15.688Z,100.00
2023-05-19T17:35:42.467Z,100.00
2023-05-19T17:38:09.281Z,100.00
2023-05-19T17:40:36.227Z,100.00
2023-05-19T17:43:03.219Z,100.00
2023-05-19T17:45:29.903Z,100.00
2023-05-19T17:47:58.471Z,100.00
2023-05-19T17:50:25.412Z,100.00
2023-05-19T17:52:52.981Z,100.00
2023-05-19T17:55:20.754Z,100.00
2023-05-19T17:57:48.783Z,100.00
2023-05-19T18:00:18.482Z,100.00
2023-05-19T18:02:46.079Z,100.00
2023-05-19T18:05:16.963Z,100.00
2023-05-19T18:07:44.372Z,100.00
2023-05-19T18:10:14.708Z,100.00
2023-05-19T18:12:41.438Z,100.00
2023-05-19T18:15:08.942Z,100.00
2023-05-19T18:17:35.922Z,100.00
2023-05-19T18:20:02.784Z,100.00
2023-05-19T18:22:31.104Z,100.00
2023-05-19T18:24:58.060Z,100.00
2023-05-19T18:27:25.256Z,100.00
2023-05-19T18:29:52.145Z,100.00
2023-05-19T18:32:19.019Z,100.00
2023-05-19T18:34:46.258Z,100.00
2023-05-19T18:37:13.021Z,100.00
2023-05-19T18:39:41.801Z,100.00
2023-05-19T18:42:08.567Z,100.00
2023-05-19T18:44:35.375Z,100.00
2023-05-19T18:47:02.646Z,100.00
2023-05-19T18:49:31.313Z,100.00
2023-05-19T18:51:58.624Z,100.00
2023-05-19T18:54:25.802Z,100.00
2023-05-19T18:56:54.497Z,100.00
2023-05-19T18:59:22.102Z,100.00
2023-05-19T19:01:49.791Z,100.00
2023-05-19T19:04:16.919Z,100.00
2023-05-19T19:06:44.104Z,100.00
2023-05-19T19:09:11.454Z,100.00
2023-05-19T19:11:38.390Z,100.00
2023-05-19T19:14:07.445Z,100.00
2023-05-19T19:16:34.329Z,100.00
2023-05-19T19:19:01.460Z,100.00
2023-05-19T19:21:28.548Z,100.00
2023-05-19T19:23:56.017Z,100.00
2023-05-19T19:26:23.748Z,100.00
2023-05-19T19:28:51.079Z,100.00
2023-05-19T19:31:19.419Z,100.00
2023-05-19T19:33:46.415Z,100.00
2023-05-19T19:36:16.220Z,100.00
2023-05-19T19:38:43.390Z,100.00
2023-05-19T19:41:11.057Z,100.00
2023-05-19T19:43:37.902Z,100.00
2023-05-19T19:46:05.137Z,100.00
2023-05-19T19:48:33.724Z,100.00
2023-05-19T19:51:00.526Z,100.00
2023-05-19T19:53:27.181Z,100.00
2023-05-19T19:55:58.240Z,100.00
2023-05-19T19:58:25.633Z,100.00
2023-05-19T20:00:56.126Z,100.00
2023-05-19T20:03:22.979Z,100.00
2023-05-19T20:05:51.553Z,100.00
2023-05-19T20:08:18.360Z,100.00
2023-05-19T20:10:46.425Z,100.00
2023-05-19T20:13:13.206Z,100.00
2023-05-19T20:15:40.659Z,100.00
2023-05-19T20:18:07.667Z,100.00
2023-05-19T20:20:36.493Z,100.00
2023-05-19T20:23:05.683Z,100.00
2023-05-19T20:25:32.732Z,100.00
2023-05-19T20:27:59.879Z,100.00
2023-05-19T20:30:26.916Z,100.00
2023-05-19T20:32:55.105Z,100.00
2023-05-19T20:35:24.531Z,100.00
2023-05-19T20:37:51.457Z,100.00
2023-05-19T20:40:19.847Z,100.00
2023-05-19T20:42:46.720Z,100.00
2023-05-19T20:45:13.502Z,100.00
2023-05-19T20:47:40.598Z,100.00
2023-05-19T20:50:08.337Z,100.00
2023-05-19T20:52:35.331Z,100.00
2023-05-19T20:55:02.400Z,100.00
2023-05-19T20:57:30.955Z,100.00
2023-05-19T20:59:57.734Z,100.00
2023-05-19T21:02:24.484Z,100.00
2023-05-19T21:04:51.335Z,100.00
2023-05-19T21:07:18.382Z,100.00
2023-05-19T21:09:45.110Z,100.00
2023-05-19T21:12:12.098Z,100.00
2023-05-19T21:14:40.465Z,100.00
2023-05-19T21:17:07.444Z,100.00
2023-05-19T21:19:36.666Z,100.00
2023-05-19T21:22:03.690Z,100.00
2023-05-19T21:24:30.717Z,100.00
2023-05-19T21:26:59.423Z,100.00
2023-05-19T21:29:26.401Z,100.00
2023-05-19T21:31:54.691Z,100.00
2023-05-19T21:34:21.807Z,100.00
2023-05-19T21:36:50.048Z,100.00
2023-05-19T21:39:17.361Z,100.00
2023-05-19T21:41:44.204Z,100.00
2023-05-19T21:44:10.894Z,100.00
2023-05-19T21:46:38.203Z,100.00
2023-05-19T21:49:08.475Z,100.00
2023-05-19T21:51:35.488Z,100.00
2023-05-19T21:54:02.317Z,100.00
2023-05-19T21:56:29.589Z,100.00
2023-05-19T21:58:56.558Z,100.00
2023-05-19T22:01:23.296Z,100.00
2023-05-19T22:03:50.095Z,100.00
2023-05-19T22:06:18.225Z,100.00
2023-05-19T22:08:45.353Z,100.00
2023-05-19T22:11:12.063Z,100.00
2023-05-19T22:13:38.832Z,100.00
2023-05-19T22:16:05.842Z,100.00
2023-05-19T22:18:32.618Z,100.00
2023-05-19T22:20:59.435Z,100.00
2023-05-19T22:23:27.633Z,100.00
2023-05-19T22:25:54.397Z,100.00
2023-05-19T22:28:21.203Z,100.00
2023-05-19T22:30:48.051Z,100.00
2023-05-19T22:33:14.826Z,100.00
2023-05-19T22:35:41.875Z,100.00
2023-05-19T22:38:10.489Z,100.00
2023-05-19T22:40:39.019Z,100.00
2023-05-19T22:43:05.768Z,100.00
2023-05-19T22:45:34.771Z,100.00
2023-05-19T22:48:01.769Z,100.00
2023-05-19T22:50:28.626Z,100.00
2023-05-19T22:52:55.576Z,100.00
2023-05-19T22:55:22.291Z,100.00
2023-05-19T22:57:54.269Z,100.00
2023-05-19T23:00:21.168Z,100.00
2023-05-19T23:02:48.015Z,100.00
2023-05-19T23:05:15.681Z,100.00
2023-05-19T23:07:42.855Z,100.00
2023-05-19T23:10:11.306Z,100.00
2023-05-19T23:12:38.277Z,100.00
2023-05-19T23:15:08.514Z,100.00
2023-05-19T23:17:35.610Z,100.00
2023-05-19T23:20:02.667Z,100.00
2023-05-19T23:22:31.564Z,100.00
2023-05-19T23:24:58.749Z,100.00
2023-05-19T23:27:25.877Z,100.00
2023-05-19T23:29:52.683Z,100.00
2023-05-19T23:32:20.823Z,100.00
2023-05-19T23:34:47.765Z,100.00
2023-05-19T23:37:14.576Z,100.00
2023-05-19T23:39:41.444Z,100.00
2023-05-19T23:42:08.570Z,100.00
2023-05-19T23:44:35.443Z,100.00
2023-05-19T23:47:02.726Z,100.00
2023-05-19T23:49:30.985Z,100.00
2023-05-19T23:51:58.023Z,100.00
2023-05-19T23:54:25.509Z,100.00
2023-05-19T23:56:52.447Z,100.00
2023-05-19T23:59:19.866Z,100.00
